Terminal Aerodrome Forecast
Issued by NWS

Current Version | Previous Version | Graphics & Text | Print | Product List | Glossary On
Versions: 1 2 3 4 5 6 7 8 9 10 11 12 13 14 15
000
FTUS41 KPBZ 262326
TAFHLG
TAF
KHLG 262326Z 2700/2724 21007KT P6SM SCT100
     FM271000 21005KT 3SM BR BKN140
     FM271300 22005KT P6SM BKN080
     FM272100 23004KT P6SM BKN050=

USA.gov is the U.S. government's official web portal to all federal, state and local government web resources and services.